createdAt,value
2018-10-12T00:00:41.418Z,100997.02
2018-10-12T00:03:13.393Z,101004.39
2018-10-12T00:05:49.688Z,101004.11
2018-10-12T00:08:30.086Z,101002.55
2018-10-12T00:11:00.253Z,101011.78
2018-10-12T00:13:31.004Z,101008.02
2018-10-12T00:16:00.753Z,101021.86
2018-10-12T00:18:32.056Z,101018.30
2018-10-12T00:21:01.911Z,101028.61
2018-10-12T00:23:31.451Z,101031.07
2018-10-12T00:26:01.670Z,101029.16
2018-10-12T00:28:31.912Z,101033.82
2018-10-12T00:31:02.343Z,101035.95
2018-10-12T00:33:32.043Z,101036.27
2018-10-12T00:36:01.628Z,101034.56
2018-10-12T00:38:31.763Z,101040.19
2018-10-12T00:41:01.602Z,101038.60
2018-10-12T00:43:31.403Z,101034.45
2018-10-12T00:46:08.000Z,101033.55
2018-10-12T00:48:37.666Z,101028.89
2018-10-12T00:51:07.109Z,101030.52
2018-10-12T00:53:36.607Z,101031.09
2018-10-12T00:56:06.012Z,101029.52
2018-10-12T00:58:36.578Z,101030.02
2018-10-12T01:01:07.319Z,101036.03
2018-10-12T01:03:37.969Z,101040.54
2018-10-12T01:06:07.778Z,101046.14
2018-10-12T01:08:37.279Z,101049.97
2018-10-12T01:11:06.924Z,101048.45
2018-10-12T01:13:36.416Z,101045.42
2018-10-12T01:16:06.205Z,101038.67
2018-10-12T01:18:36.280Z,101042.55
2018-10-12T01:21:06.410Z,101039.40
2018-10-12T01:23:36.107Z,101042.59
2018-10-12T01:26:05.691Z,101043.69
2018-10-12T01:28:38.879Z,101040.23
2018-10-12T01:31:10.175Z,101032.52
2018-10-12T01:33:40.379Z,101016.45
2018-10-12T01:36:10.575Z,101020.71
2018-10-12T01:38:40.189Z,101023.25
2018-10-12T01:43:48.017Z,101017.17
2018-10-12T01:46:18.084Z,101020.77
2018-10-12T01:48:47.933Z,101039.48
2018-10-12T01:51:17.633Z,101044.67
2018-10-12T01:53:47.468Z,101051.25
2018-10-12T01:56:17.239Z,101058.34
2018-10-12T01:58:47.004Z,101059.73
2018-10-12T02:01:16.561Z,101066.27
2018-10-12T02:03:51.839Z,101057.95
2018-10-12T02:06:21.613Z,101063.34
2018-10-12T02:08:51.224Z,101062.34
2018-10-12T02:11:23.242Z,101072.28
2018-10-12T02:13:53.300Z,101080.95
2018-10-12T02:16:23.746Z,101081.47
2018-10-12T02:18:53.753Z,101076.12
2018-10-12T02:21:24.610Z,101087.30
2018-10-12T02:23:54.470Z,101083.55
2018-10-12T02:26:24.163Z,101083.78
2018-10-12T02:28:54.614Z,101083.88
2018-10-12T02:31:24.838Z,101086.88
2018-10-12T02:33:54.465Z,101086.62
2018-10-12T02:36:24.211Z,101088.06
2018-10-12T02:38:53.777Z,101093.05
2018-10-12T02:41:28.397Z,101089.55
2018-10-12T02:43:58.956Z,101096.80
2018-10-12T02:46:28.754Z,101093.76
2018-10-12T02:48:59.482Z,101105.48
2018-10-12T02:51:29.300Z,101103.79
2018-10-12T02:53:58.718Z,101109.23
2018-10-12T02:56:28.474Z,101114.41
2018-10-12T02:58:58.238Z,101133.09
2018-10-12T03:01:33.354Z,101135.97
2018-10-12T03:04:02.748Z,101135.80
2018-10-12T03:06:32.647Z,101137.57
2018-10-12T03:09:02.037Z,101140.56
2018-10-12T03:11:32.822Z,101145.08
2018-10-12T03:14:02.640Z,101144.36
2018-10-12T03:16:33.178Z,101141.55
2018-10-12T03:19:03.016Z,101144.23
2018-10-12T03:21:33.395Z,101144.36
2018-10-12T03:24:03.157Z,101139.97
2018-10-12T03:26:33.096Z,101146.13
2018-10-12T03:29:03.728Z,101147.27
2018-10-12T03:31:34.214Z,101140.05
2018-10-12T03:34:03.874Z,101142.84
2018-10-12T03:36:33.584Z,101153.94
2018-10-12T03:39:03.832Z,101150.73
2018-10-12T03:41:33.684Z,101157.27
2018-10-12T03:44:03.185Z,101163.81
2018-10-12T03:46:33.051Z,101176.08
2018-10-12T03:49:02.629Z,101163.01
2018-10-12T03:51:32.353Z,101167.56
2018-10-12T03:54:02.777Z,101172.45
2018-10-12T03:56:32.531Z,101182.20
2018-10-12T03:59:04.248Z,101188.78
2018-10-12T04:01:34.453Z,101198.39
2018-10-12T04:04:04.435Z,101202.11
2018-10-12T04:06:36.170Z,101194.65
2018-10-12T04:09:07.078Z,101202.35
2018-10-12T04:11:38.317Z,101199.28
2018-10-12T04:14:08.082Z,101192.70
2018-10-12T04:16:37.804Z,101191.35
2018-10-12T04:19:12.770Z,101192.70
2018-10-12T04:21:42.273Z,101181.56
2018-10-12T04:24:12.250Z,101182.52
2018-10-12T04:26:41.769Z,101183.50
2018-10-12T04:29:11.968Z,101191.09
2018-10-12T04:31:42.261Z,101204.25
2018-10-12T04:34:14.368Z,101215.28
2018-10-12T04:36:43.763Z,101215.31
2018-10-12T04:39:26.574Z,101215.81
2018-10-12T04:42:01.555Z,101221.05
2018-10-12T04:44:31.375Z,101220.34
2018-10-12T04:47:01.433Z,101229.75
2018-10-12T04:49:31.016Z,101242.53
2018-10-12T04:52:02.084Z,101249.48
2018-10-12T04:54:34.167Z,101253.67
2018-10-12T04:57:03.520Z,101254.72
2018-10-12T04:59:33.949Z,101261.16
2018-10-12T05:02:04.466Z,101272.66
2018-10-12T05:04:35.147Z,101267.45
2018-10-12T05:07:04.659Z,101266.43
2018-10-12T05:09:34.273Z,101267.28
2018-10-12T05:12:03.719Z,101274.53
2018-10-12T05:14:33.095Z,101275.03
2018-10-12T05:17:03.570Z,101277.20
2018-10-12T05:19:34.031Z,101287.86
2018-10-12T05:22:05.914Z,101296.09
2018-10-12T05:24:35.456Z,101302.84
2018-10-12T05:27:05.048Z,101300.34
2018-10-12T05:29:34.570Z,101305.39
2018-10-12T05:32:04.337Z,101310.28
2018-10-12T05:34:37.834Z,101313.98
2018-10-12T05:37:08.152Z,101312.33
2018-10-12T05:39:38.265Z,101313.88
2018-10-12T05:42:08.783Z,101319.77
2018-10-12T05:44:42.744Z,101315.26
2018-10-12T05:47:14.253Z,101116.77
2018-10-12T05:50:15.225Z,101323.19
2018-10-12T05:52:49.465Z,101329.60
2018-10-12T05:55:18.925Z,101334.48
2018-10-12T05:57:53.859Z,101340.03
2018-10-12T06:00:33.297Z,101343.20
2018-10-12T06:03:04.650Z,101339.30
2018-10-12T06:05:34.721Z,101341.82
2018-10-12T06:08:05.622Z,101339.81
2018-10-12T06:10:45.595Z,101345.86
2018-10-12T06:13:15.127Z,101348.06
2018-10-12T06:15:46.591Z,101343.88
2018-10-12T06:18:16.610Z,101351.12
2018-10-12T06:20:46.238Z,101348.24
2018-10-12T06:23:19.162Z,101346.03
2018-10-12T06:25:49.013Z,101342.81
2018-10-12T06:28:18.625Z,101354.45
2018-10-12T06:30:50.141Z,101360.33
2018-10-12T06:33:20.132Z,101363.53
2018-10-12T06:36:00.564Z,101371.82
2018-10-12T06:38:32.704Z,101379.55
2018-10-12T06:41:04.959Z,101384.95
2018-10-12T06:43:35.258Z,101389.64
2018-10-12T06:46:12.175Z,101391.78
2018-10-12T06:51:24.627Z,101413.67
2018-10-12T06:53:54.027Z,101429.64
2018-10-12T06:56:25.043Z,101428.43
2018-10-12T06:58:54.907Z,101433.30
2018-10-12T07:04:01.907Z,101446.09
2018-10-12T07:06:32.249Z,101449.25
2018-10-12T07:09:03.108Z,101450.54
2018-10-12T07:11:32.872Z,101450.54
2018-10-12T07:14:03.443Z,101441.61
2018-10-12T07:16:36.355Z,101447.29
2018-10-12T07:19:06.581Z,101448.04
2018-10-12T07:21:36.918Z,101450.86
2018-10-12T07:26:32.064Z,101457.36
2018-10-12T07:31:28.864Z,101459.08
2018-10-12T07:34:01.419Z,101465.28
2018-10-12T07:36:32.626Z,101208.45
2018-10-12T07:39:02.685Z,101467.28
2018-10-12T07:41:34.468Z,101474.20
2018-10-12T07:44:06.621Z,101481.20
2018-10-12T07:46:36.463Z,101488.72
2018-10-12T07:49:06.852Z,101491.25
2018-10-12T07:51:36.269Z,101495.05
2018-10-12T07:54:09.097Z,101493.28
2018-10-12T07:56:39.204Z,101491.15
2018-10-12T07:59:11.837Z,101491.07
2018-10-12T08:01:49.555Z,101491.83
2018-10-12T08:04:23.052Z,101491.19
2018-10-12T08:06:59.247Z,101490.58
2018-10-12T08:09:35.441Z,101494.84
2018-10-12T08:12:23.942Z,101497.42
2018-10-12T08:14:56.083Z,101502.56
2018-10-12T08:17:29.191Z,101494.73
2018-10-12T08:20:00.055Z,101508.31
2018-10-12T08:22:30.644Z,101517.33
2018-10-12T08:25:08.630Z,101513.98
2018-10-12T08:27:40.366Z,101520.83
2018-10-12T08:30:10.031Z,101523.23
2018-10-12T08:32:40.664Z,101528.52
2018-10-12T08:35:12.040Z,101532.93
2018-10-12T08:37:41.604Z,101523.55
2018-10-12T08:40:11.976Z,101531.85
2018-10-12T08:42:42.315Z,101536.97
2018-10-12T08:45:17.564Z,101538.50
2018-10-12T08:47:48.537Z,101544.73
2018-10-12T08:53:04.873Z,101544.91
2018-10-12T08:55:34.799Z,101545.90
2018-10-12T08:58:04.472Z,101545.01
2018-10-12T09:00:35.704Z,101543.05
2018-10-12T09:03:06.544Z,101545.60
2018-10-12T09:05:36.215Z,101541.74
2018-10-12T09:08:08.277Z,101543.72
2018-10-12T09:10:41.217Z,101546.76
2018-10-12T09:13:14.155Z,101544.91
2018-10-12T09:15:44.055Z,101543.38
2018-10-12T09:18:13.501Z,101551.34
2018-10-12T09:20:43.018Z,101557.38
2018-10-12T09:23:13.033Z,101555.30
2018-10-12T09:25:43.751Z,101556.31
2018-10-12T09:28:15.921Z,101553.90
2018-10-12T09:30:45.885Z,101552.79
2018-10-12T09:33:16.072Z,101560.06
2018-10-12T09:35:47.442Z,101547.73
2018-10-12T09:38:26.312Z,101440.48
2018-10-12T09:40:55.805Z,101546.48
2018-10-12T09:43:28.103Z,101556.72
2018-10-12T09:45:57.867Z,101552.20
2018-10-12T09:48:28.536Z,101550.16
2018-10-12T09:51:00.501Z,101550.44
2018-10-12T09:53:37.718Z,101544.06
2018-10-12T09:56:10.166Z,101546.48
2018-10-12T09:58:40.312Z,101546.09
2018-10-12T10:01:16.131Z,101548.00
2018-10-12T10:03:50.656Z,101552.51
2018-10-12T10:06:22.307Z,101533.58
2018-10-12T10:08:52.576Z,101535.30
2018-10-12T10:11:22.158Z,101527.30
2018-10-12T10:13:52.333Z,101530.73
2018-10-12T10:16:22.344Z,101530.70
2018-10-12T10:18:55.339Z,101528.30
2018-10-12T10:21:26.081Z,101543.08
2018-10-12T10:23:57.787Z,101531.38
2018-10-12T10:26:38.068Z,101534.66
2018-10-12T10:29:10.146Z,101527.77
2018-10-12T10:31:40.272Z,101525.09
2018-10-12T10:34:11.745Z,101515.53
2018-10-12T10:36:45.988Z,101521.72
2018-10-12T10:39:19.068Z,101521.33
2018-10-12T10:41:50.049Z,101516.76
2018-10-12T10:44:20.973Z,101513.58
2018-10-12T10:46:53.698Z,101510.72
2018-10-12T10:49:27.053Z,101501.09
2018-10-12T10:51:57.811Z,101508.55
2018-10-12T10:54:29.174Z,101507.06
2018-10-12T10:59:32.639Z,101511.80
2018-10-12T11:02:02.991Z,101515.50
2018-10-12T11:04:34.639Z,101517.49
2018-10-12T11:07:06.317Z,101508.16
2018-10-12T11:09:39.643Z,101500.43
2018-10-12T11:12:13.663Z,101513.42
2018-10-12T11:14:43.279Z,101498.34
2018-10-12T11:17:18.660Z,101506.04
2018-10-12T11:19:48.941Z,101503.91
2018-10-12T11:22:19.338Z,101494.29
2018-10-12T11:24:49.188Z,101498.13
2018-10-12T11:27:27.205Z,101493.75
2018-10-12T11:29:57.626Z,101505.10
2018-10-12T11:32:29.797Z,101502.41
2018-10-12T11:35:01.225Z,101502.69
2018-10-12T11:37:34.616Z,101498.97
2018-10-12T11:40:05.773Z,101498.83
2018-10-12T11:43:42.722Z,101498.11
2018-10-12T11:46:14.012Z,101490.48
2018-10-12T11:48:47.200Z,101489.75
2018-10-12T11:51:21.951Z,101480.42
2018-10-12T11:56:59.326Z,101480.49
2018-10-12T11:59:32.357Z,101477.02
2018-10-12T12:02:07.470Z,101478.72
2018-10-12T12:04:37.395Z,101475.95
2018-10-12T12:07:07.694Z,101475.57
2018-10-12T12:09:39.747Z,101478.09
2018-10-12T12:12:21.043Z,101466.81
2018-10-12T12:14:51.371Z,101467.60
2018-10-12T12:17:22.190Z,101465.80
2018-10-12T12:20:00.052Z,101464.96
2018-10-12T12:22:30.751Z,101474.61
2018-10-12T12:25:05.642Z,101462.94
2018-10-12T12:27:37.260Z,101450.03
2018-10-12T12:30:21.858Z,101465.88
2018-10-12T12:32:53.323Z,101463.27
2018-10-12T12:35:23.569Z,101455.43
2018-10-12T12:37:54.048Z,101457.84
2018-10-12T12:40:28.269Z,101454.67
2018-10-12T12:43:01.991Z,101453.11
2018-10-12T12:45:32.807Z,101449.89
2018-10-12T12:48:07.711Z,101458.97
2018-10-12T12:50:40.237Z,101457.35
2018-10-12T12:53:14.542Z,101459.53
2018-10-12T12:55:46.979Z,101455.90
2018-10-12T12:58:21.007Z,101450.19
2018-10-12T13:00:52.264Z,101450.46
2018-10-12T13:03:24.976Z,101439.89
2018-10-12T13:05:54.788Z,101439.81
2018-10-12T13:08:26.686Z,101438.49
2018-10-12T13:11:01.625Z,101438.34
2018-10-12T13:13:33.865Z,101432.69
2018-10-12T13:16:14.591Z,101441.45
2018-10-12T13:18:47.355Z,101442.72
2018-10-12T13:21:16.825Z,101437.48
2018-10-12T13:23:52.435Z,101428.48
2018-10-12T13:26:36.308Z,101441.69
2018-10-12T13:29:06.739Z,101456.37
2018-10-12T13:31:38.662Z,101451.47
2018-10-12T13:34:10.594Z,101456.31
2018-10-12T13:36:44.933Z,101466.88
2018-10-12T13:39:16.142Z,101466.36
2018-10-12T13:41:52.021Z,101469.71
2018-10-12T13:44:26.535Z,101474.86
2018-10-12T13:46:57.801Z,101478.36
2018-10-12T13:49:27.548Z,101478.83
2018-10-12T13:51:57.352Z,101480.50
2018-10-12T13:54:29.012Z,101481.27
2018-10-12T13:57:03.140Z,101481.43
2018-10-12T13:59:35.241Z,101483.09
2018-10-12T14:02:07.901Z,101478.02
2018-10-12T14:04:37.748Z,101478.67
2018-10-12T14:07:10.435Z,101480.38
2018-10-12T14:09:44.204Z,101477.42
2018-10-12T14:12:18.965Z,101477.45
2018-10-12T14:14:49.180Z,101471.03
2018-10-12T14:17:20.459Z,101470.74
2018-10-12T14:19:51.228Z,101478.98
2018-10-12T14:22:22.794Z,101479.59
2018-10-12T14:24:55.870Z,101479.52
2018-10-12T14:27:27.693Z,101474.75
2018-10-12T14:29:58.354Z,101476.42
2018-10-12T14:32:28.192Z,101475.16
2018-10-12T14:34:58.875Z,101473.89
2018-10-12T14:37:35.931Z,101468.70
2018-10-12T14:40:05.989Z,101469.23
2018-10-12T14:42:35.521Z,101469.55
2018-10-12T14:45:09.660Z,101296.64
2018-10-12T14:47:42.765Z,101459.42
2018-10-12T14:50:22.011Z,101462.89
2018-10-12T14:52:56.514Z,101461.06
2018-10-12T14:55:28.028Z,101459.64
2018-10-12T14:58:00.721Z,101470.03
2018-10-12T15:00:30.937Z,101464.11
2018-10-12T15:03:01.251Z,101459.73
2018-10-12T15:05:34.544Z,101461.32
2018-10-12T15:08:04.169Z,101463.00
2018-10-12T15:10:36.291Z,101463.25
2018-10-12T15:15:38.610Z,101468.47
2018-10-12T15:18:12.698Z,101469.10
2018-10-12T15:20:42.675Z,101467.51
2018-10-12T15:23:12.920Z,101468.63
2018-10-12T15:25:43.573Z,101459.56
2018-10-12T15:28:18.222Z,101469.25
2018-10-12T15:30:50.772Z,101469.80
2018-10-12T15:33:20.345Z,101475.52
2018-10-12T15:35:50.424Z,101479.41
2018-10-12T15:38:20.494Z,101478.86
2018-10-12T15:40:52.304Z,101477.36
2018-10-12T15:43:21.789Z,101480.05
2018-10-12T15:45:57.865Z,101478.80
2018-10-12T15:48:32.102Z,101475.23
2018-10-12T15:51:01.981Z,101474.64
2018-10-12T15:53:32.552Z,101481.69
2018-10-12T15:56:03.737Z,101485.33
2018-10-12T15:58:34.894Z,101479.61
2018-10-12T16:01:05.677Z,101480.30
2018-10-12T16:03:36.019Z,101482.66
2018-10-12T16:06:08.245Z,101482.05
2018-10-12T16:08:39.356Z,101475.20
2018-10-12T16:11:10.092Z,101485.25
2018-10-12T16:13:44.939Z,101478.16
2018-10-12T16:16:16.737Z,101478.53
2018-10-12T16:18:46.328Z,101481.97
2018-10-12T16:21:17.129Z,101486.62
2018-10-12T16:23:52.028Z,101482.05
2018-10-12T16:26:23.670Z,101489.34
2018-10-12T16:28:54.557Z,101486.30
2018-10-12T16:31:24.836Z,101498.89
2018-10-12T16:33:54.735Z,101496.58
2018-10-12T16:36:24.106Z,101495.81
2018-10-12T16:38:56.096Z,101504.22
2018-10-12T16:41:25.514Z,101505.86
2018-10-12T16:43:54.892Z,101509.89
2018-10-12T16:46:24.997Z,101501.23
2018-10-12T16:48:57.500Z,101507.53
2018-10-12T16:51:31.919Z,101508.77
2018-10-12T16:54:07.646Z,101514.25
2018-10-12T16:56:43.753Z,101510.45
2018-10-12T16:59:15.310Z,101513.31
2018-10-12T17:01:45.919Z,101511.61
2018-10-12T17:04:17.107Z,101516.25
2018-10-12T17:06:47.292Z,101516.56
2018-10-12T17:09:22.235Z,101511.31
2018-10-12T17:11:52.557Z,101514.70
2018-10-12T17:14:23.202Z,101517.91
2018-10-12T17:16:56.426Z,101517.97
2018-10-12T17:19:26.792Z,101523.28
2018-10-12T17:21:58.461Z,101525.80
2018-10-12T17:24:29.310Z,101517.77
2018-10-12T17:26:59.383Z,101526.68
2018-10-12T17:29:31.011Z,101525.66
2018-10-12T17:32:02.669Z,101531.11
2018-10-12T17:34:35.111Z,101531.03
2018-10-12T17:37:07.007Z,101533.16
2018-10-12T17:39:36.430Z,101528.42
2018-10-12T17:42:13.397Z,101537.30
2018-10-12T17:44:58.145Z,101539.19
2018-10-12T17:47:29.691Z,101538.95
2018-10-12T17:50:07.344Z,101537.39
2018-10-12T17:52:39.599Z,101552.30
2018-10-12T17:55:17.599Z,101556.70
2018-10-12T17:57:50.461Z,101555.45
2018-10-12T18:00:31.219Z,101554.20
2018-10-12T18:03:04.344Z,101565.31
2018-10-12T18:05:35.585Z,101561.11
2018-10-12T18:08:06.503Z,101560.86
2018-10-12T18:10:37.858Z,101568.22
2018-10-12T18:13:11.342Z,101559.63
2018-10-12T18:15:46.607Z,101554.28
2018-10-12T18:18:17.667Z,101552.16
2018-10-12T18:20:49.317Z,101551.02
2018-10-12T18:23:18.793Z,101553.11
2018-10-12T18:25:50.079Z,101556.37
2018-10-12T18:28:20.578Z,101562.97
2018-10-12T18:30:52.632Z,101562.53
2018-10-12T18:33:23.811Z,101568.61
2018-10-12T18:35:55.832Z,101571.10
2018-10-12T18:38:25.880Z,101569.67
2018-10-12T18:41:03.316Z,101571.42
2018-10-12T18:43:33.435Z,101570.41
2018-10-12T18:46:05.161Z,101574.80
2018-10-12T18:48:35.356Z,101577.30
2018-10-12T18:51:10.956Z,101582.75
2018-10-12T18:53:44.245Z,101583.59
2018-10-12T18:56:18.646Z,101583.38
2018-10-12T18:58:50.712Z,101585.78
2018-10-12T19:01:22.101Z,101587.89
2018-10-12T19:03:54.175Z,101593.03
2018-10-12T19:06:28.906Z,101581.62
2018-10-12T19:09:05.615Z,101590.31
2018-10-12T19:11:55.063Z,101591.45
2018-10-12T19:14:25.748Z,101589.86
2018-10-12T19:16:56.598Z,101593.19
2018-10-12T19:19:40.768Z,101548.92
2018-10-12T19:22:18.467Z,101598.42
2018-10-12T19:24:58.241Z,101595.38
2018-10-12T19:27:39.426Z,101594.38
2018-10-12T19:30:17.689Z,101598.36
2018-10-12T19:32:59.740Z,101595.02
2018-10-12T19:35:30.769Z,101598.92
2018-10-12T19:38:15.468Z,101604.47
2018-10-12T19:40:49.429Z,101599.02
2018-10-12T19:43:20.545Z,101607.47
2018-10-12T19:45:52.905Z,101609.33
2018-10-12T19:48:39.634Z,101611.58
2018-10-12T19:51:11.313Z,101614.68
2018-10-12T19:56:15.673Z,101613.82
2018-10-12T19:58:53.572Z,101618.88
2018-10-12T20:01:32.244Z,101621.08
2018-10-12T20:04:02.555Z,101620.13
2018-10-12T20:06:35.142Z,101624.06
2018-10-12T20:09:12.856Z,101628.33
2018-10-12T20:11:52.944Z,101620.96
2018-10-12T20:14:24.078Z,101621.76
2018-10-12T20:16:59.326Z,101625.88
2018-10-12T20:19:29.350Z,101621.27
2018-10-12T20:22:00.604Z,101621.47
2018-10-12T20:24:31.436Z,101625.20
2018-10-12T20:27:02.593Z,101625.05
2018-10-12T20:29:32.278Z,101621.72
2018-10-12T20:32:06.627Z,101626.97
2018-10-12T20:34:45.452Z,101635.83
2018-10-12T20:37:20.346Z,101637.33
2018-10-12T20:39:50.782Z,101630.66
2018-10-12T20:42:21.731Z,101632.78
2018-10-12T20:44:52.285Z,101631.87
2018-10-12T20:47:28.444Z,101636.75
2018-10-12T20:49:59.989Z,101633.88
2018-10-12T20:52:33.142Z,101629.59
2018-10-12T20:55:03.358Z,101635.54
2018-10-12T20:57:34.842Z,101637.16
2018-10-12T21:00:08.497Z,101626.47
2018-10-12T21:02:40.576Z,101636.63
2018-10-12T21:05:11.959Z,101634.77
2018-10-12T21:07:41.689Z,101632.30
2018-10-12T21:10:12.638Z,101652.58
2018-10-12T21:12:45.920Z,101638.38
2018-10-12T21:15:17.229Z,101638.38
2018-10-12T21:17:47.440Z,101641.39
2018-10-12T21:20:17.317Z,101640.00
2018-10-12T21:22:51.073Z,101640.28
2018-10-12T21:25:23.059Z,101638.67
2018-10-12T21:27:58.423Z,101644.36
2018-10-12T21:30:31.014Z,101631.27
2018-10-12T21:33:02.896Z,101632.30
2018-10-12T21:35:33.521Z,101630.09
2018-10-12T21:38:05.372Z,101635.00
2018-10-12T21:40:36.775Z,101635.93
2018-10-12T21:43:11.465Z,101631.86
2018-10-12T21:45:42.158Z,101634.23
2018-10-12T21:48:13.880Z,101637.47
2018-10-12T21:50:43.374Z,101637.02
2018-10-12T21:53:13.422Z,101634.57
2018-10-12T21:55:43.870Z,101634.10
2018-10-12T21:58:13.847Z,101637.33
2018-10-12T22:00:46.715Z,101632.74
2018-10-12T22:03:17.238Z,101638.06
2018-10-12T22:05:54.703Z,101637.34
2018-10-12T22:17:10.295Z,101625.44
2018-10-12T22:19:50.598Z,101626.16
2018-10-12T22:22:31.903Z,101626.80
2018-10-12T22:25:01.686Z,101625.69
2018-10-12T22:27:36.965Z,101627.19
2018-10-12T22:30:22.766Z,101625.50
2018-10-12T22:32:53.878Z,101613.55
2018-10-12T22:35:24.406Z,101617.55
2018-10-12T22:37:53.971Z,101622.86
2018-10-12T22:40:23.992Z,101617.02
2018-10-12T22:42:55.747Z,101615.30
2018-10-12T22:45:29.334Z,101611.08
2018-10-12T22:47:59.713Z,101607.66
2018-10-12T22:50:31.911Z,101608.16
2018-10-12T22:53:02.242Z,101600.22
2018-10-12T22:55:32.407Z,101608.27
2018-10-12T22:58:04.382Z,101604.80
2018-10-12T23:00:38.432Z,101605.31
2018-10-12T23:03:11.064Z,101603.96
2018-10-12T23:05:56.603Z,101593.95
2018-10-12T23:08:28.035Z,101595.82
2018-10-12T23:11:03.196Z,101597.24
2018-10-12T23:13:33.739Z,101602.92
2018-10-12T23:16:04.349Z,101596.78
2018-10-12T23:18:52.447Z,101598.77
2018-10-12T23:21:24.046Z,101593.55
2018-10-12T23:23:54.491Z,101599.34
2018-10-12T23:26:24.803Z,101588.98
2018-10-12T23:28:58.262Z,101592.17
2018-10-12T23:31:32.239Z,101593.31
2018-10-12T23:34:12.646Z,101586.50
2018-10-12T23:36:44.098Z,101581.38
2018-10-12T23:41:53.601Z,101586.30
2018-10-12T23:44:28.389Z,101586.17
2018-10-12T23:47:01.724Z,101584.48
2018-10-12T23:49:35.123Z,101587.38
2018-10-12T23:54:45.947Z,101576.20
2018-10-12T23:57:18.549Z,101575.09
2018-10-12T23:59:52.338Z,101582.53
